Time;durP1;ratioP1;P1;durP2;ratioP2;P2;SDS_P1;SDS_P2;PMS_P1;PMS_P2;Temp;Humidity;BMP_temperature;BMP_pressure;BME280_temperature;BME280_humidity;BME280_pressure;Samples;Min_cycle;Max_cycle;Signal;HPM_P1;HPM_P2
2022/09/15 00:01:02;;;;;;;11.05;9.23;;;;;;;15.05;100.00;98512.14;1631751;86;20952;-69
2022/09/15 00:03:30;;;;;;;10.23;8.18;;;;;;;15.09;100.00;98510.22;1640552;86;21025;-72
2022/09/15 00:05:56;;;;;;;9.75;8.65;;;;;;;15.12;100.00;98514.78;1639645;86;20924;-68
2022/09/15 00:08:25;;;;;;;14.15;10.48;;;;;;;15.15;100.00;98515.45;1614964;86;21158;-72
2022/09/15 00:10:55;;;;;;;11.20;8.90;;;;;;;15.18;100.00;98511.31;1633972;86;21207;-70
2022/09/15 00:13:21;;;;;;;10.85;8.18;;;;;;;15.22;100.00;98503.03;1639734;86;20972;-71
2022/09/15 00:15:48;;;;;;;14.90;8.05;;;;;;;15.19;100.00;98506.56;1617296;87;20993;-70
2022/09/15 00:18:16;;;;;;;11.93;8.40;;;;;;;15.19;100.00;98508.77;1656154;86;21016;-70
2022/09/15 00:20:46;;;;;;;16.55;8.68;;;;;;;15.24;100.00;98504.85;1640668;86;21313;-69
2022/09/15 00:23:14;;;;;;;9.55;8.55;;;;;;;15.27;100.00;98502.70;1640225;86;21063;-68
2022/09/15 00:25:49;;;;;;;10.00;9.00;;;;;;;15.26;100.00;98491.98;1641807;86;20984;-72
2022/09/15 00:28:18;;;;;;;11.18;8.68;;;;;;;15.24;100.00;98491.56;1639654;87;21012;-71
2022/09/15 00:30:51;;;;;;;10.25;9.00;;;;;;;15.21;100.00;98493.13;1629061;86;21080;-71
2022/09/15 00:33:18;;;;;;;12.45;9.88;;;;;;;15.17;100.00;98496.42;1637209;86;21308;-69
2022/09/15 00:35:46;;;;;;;10.28;8.63;;;;;;;15.15;100.00;98500.19;1614324;86;20964;-73
2022/09/15 00:38:17;;;;;;;11.97;9.03;;;;;;;15.09;100.00;98500.52;1614020;86;21548;-67
2022/09/15 00:40:51;;;;;;;9.58;7.72;;;;;;;15.03;100.00;98504.77;1622441;86;21075;-68
2022/09/15 00:43:23;;;;;;;15.80;7.58;;;;;;;15.01;100.00;98500.79;1619904;86;20972;-69
2022/09/15 00:45:50;;;;;;;17.50;8.28;;;;;;;14.99;100.00;98505.33;1633002;86;21444;-74
2022/09/15 00:48:20;;;;;;;15.20;8.58;;;;;;;14.98;100.00;98505.09;1577389;86;21481;-71
2022/09/15 00:50:51;;;;;;;10.82;8.15;;;;;;;14.98;100.00;98498.77;1624087;86;21014;-74
2022/09/15 00:53:17;;;;;;;12.60;9.80;;;;;;;14.92;100.00;98499.67;1622133;87;20996;-67
2022/09/15 00:55:46;;;;;;;9.70;8.70;;;;;;;14.88;100.00;98500.19;1588720;87;21074;-64
2022/09/15 00:58:30;;;;;;;10.05;8.83;;;;;;;14.99;100.00;98498.39;1639848;86;21717;-72
2022/09/15 01:00:59;;;;;;;15.65;9.48;;;;;;;14.99;100.00;98495.62;1642909;86;20938;-65
2022/09/15 01:03:29;;;;;;;14.70;10.03;;;;;;;14.96;100.00;98491.61;1628062;86;21036;-70
2022/09/15 01:06:03;;;;;;;11.60;9.25;;;;;;;14.91;100.00;98491.15;1615443;86;21109;-67
2022/09/15 01:08:50;;;;;;;11.55;9.30;;;;;;;14.87;100.00;98487.52;1627740;86;21045;-67
2022/09/15 01:11:17;;;;;;;10.93;9.45;;;;;;;14.96;100.00;98491.61;1644277;86;21162;-70
2022/09/15 01:13:43;;;;;;;16.35;9.30;;;;;;;14.83;100.00;98492.42;1622775;88;21603;-65
2022/09/15 01:16:37;;;;;;;9.53;8.58;;;;;;;15.00;100.00;98482.53;1606858;87;21127;-66
2022/09/15 01:19:34;;;;;;;;;;;;;;;15.02;100.00;98488.51;1619673;86;20959;-65
2022/09/15 01:22:15;;;;;;;11.65;8.95;;;;;;;14.75;100.00;98480.99;1638430;86;20132;-68
2022/09/15 01:25:08;;;;;;;11.55;9.53;;;;;;;14.74;100.00;98472.45;1635024;86;21245;-72
2022/09/15 01:28:14;;;;;;;13.65;9.28;;;;;;;14.95;100.00;98473.95;1639100;86;21472;-72
2022/09/15 01:30:52;;;;;;;16.48;9.90;;;;;;;15.04;100.00;98475.88;1622865;86;21456;-70
2022/09/15 01:33:31;;;;;;;11.40;9.38;;;;;;;15.12;100.00;98466.24;1617761;86;21248;-72
2022/09/15 01:36:20;;;;;;;10.68;9.28;;;;;;;15.18;100.00;98464.14;1613992;87;21539;-72
2022/09/15 01:39:07;;;;;;;12.23;9.70;;;;;;;15.24;100.00;98463.23;1588883;87;21134;-71
2022/09/15 01:41:44;;;;;;;22.70;9.83;;;;;;;15.31;100.00;98462.52;1593668;87;21027;-70
2022/09/15 01:44:15;;;;;;;13.10;9.53;;;;;;;15.36;100.00;98459.98;1591090;87;20980;-66
2022/09/15 01:46:46;;;;;;;13.40;8.73;;;;;;;15.40;100.00;98463.63;1590779;89;21287;-71
2022/09/15 01:49:20;;;;;;;12.80;9.10;;;;;;;15.45;100.00;98458.55;1597599;87;21820;-66
2022/09/15 01:51:51;;;;;;;17.60;9.80;;;;;;;15.51;100.00;98454.81;1615742;87;21289;-71
2022/09/15 01:54:38;;;;;;;12.37;9.20;;;;;;;15.56;100.00;98452.28;1616400;87;20905;-69
2022/09/15 01:57:07;;;;;;;12.45;9.63;;;;;;;15.61;100.00;98444.23;1598235;87;21082;-70
2022/09/15 01:59:34;;;;;;;14.10;10.85;;;;;;;15.62;100.00;98440.26;1612050;87;21498;-69
2022/09/15 02:02:04;;;;;;;11.80;9.20;;;;;;;15.65;100.00;98439.49;1591922;87;21025;-67
2022/09/15 02:04:47;;;;;;;14.00;9.75;;;;;;;15.67;100.00;98437.14;1609996;87;21136;-68
2022/09/15 02:07:43;;;;;;;12.03;9.30;;;;;;;15.65;100.00;98438.91;1599546;87;21001;-66
2022/09/15 02:10:26;;;;;;;9.33;8.25;;;;;;;15.71;100.00;98436.59;1609238;87;20981;-68
2022/09/15 02:13:07;;;;;;;9.70;8.38;;;;;;;15.72;100.00;98440.96;1573545;90;21085;-70
2022/09/15 02:15:51;;;;;;;13.90;9.23;;;;;;;15.82;100.00;98442.23;1596767;87;21083;-67
2022/09/15 02:18:44;;;;;;;13.90;9.18;;;;;;;15.86;100.00;98445.86;1615877;87;21787;-68
2022/09/15 02:21:25;;;;;;;9.65;8.73;;;;;;;15.89;100.00;98437.34;1599749;87;21446;-69
2022/09/15 02:23:55;;;;;;;11.48;8.25;;;;;;;15.78;100.00;98439.42;1616973;87;21115;-67
2022/09/15 02:26:26;;;;;;;14.60;8.10;;;;;;;15.72;100.00;98449.29;1616166;87;21056;-73
2022/09/15 02:28:53;;;;;;;11.12;8.43;;;;;;;15.81;100.00;98441.43;1620338;87;21039;-66
2022/09/15 02:31:22;;;;;;;10.08;8.78;;;;;;;15.89;100.00;98438.73;1608001;87;21165;-67
2022/09/15 02:33:56;;;;;;;15.65;9.40;;;;;;;15.88;100.00;98439.31;1620849;87;21076;-70
2022/09/15 02:36:23;;;;;;;13.32;9.38;;;;;;;15.91;100.00;98440.54;1628538;86;21060;-70
2022/09/15 02:38:53;;;;;;;12.82;8.78;;;;;;;15.96;100.00;98442.16;1599798;87;21008;-67
2022/09/15 02:41:21;;;;;;;13.35;9.80;;;;;;;15.97;100.00;98439.61;1590502;88;20984;-67
2022/09/15 02:43:48;;;;;;;13.58;8.73;;;;;;;15.99;100.00;98440.03;1607865;87;21163;-67
2022/09/15 02:46:17;;;;;;;12.45;9.50;;;;;;;15.94;100.00;98443.36;1605933;87;20916;-68
2022/09/15 02:48:44;;;;;;;11.35;7.95;;;;;;;16.00;100.00;98435.48;1628829;86;21028;-64
2022/09/15 02:51:11;;;;;;;11.28;8.68;;;;;;;16.04;100.00;98432.16;1605278;87;20972;-68
2022/09/15 02:53:41;;;;;;;13.15;8.65;;;;;;;16.05;100.00;98425.41;1592110;87;20998;-66
2022/09/15 02:56:08;;;;;;;14.53;9.33;;;;;;;16.08;100.00;98420.27;1611228;87;21879;-67
2022/09/15 02:58:35;;;;;;;10.80;9.00;;;;;;;16.06;100.00;98418.69;1596619;87;20963;-65
2022/09/15 03:01:03;;;;;;;16.27;9.35;;;;;;;16.05;100.00;98412.12;1618819;86;21457;-65
2022/09/15 03:03:32;;;;;;;14.15;8.98;;;;;;;16.03;100.00;98411.12;1640598;87;21406;-67
2022/09/15 03:06:15;;;;;;;11.38;9.00;;;;;;;15.98;100.00;98412.84;1604126;87;21517;-68
2022/09/15 03:08:27;;;;;;;14.03;9.13;;;;;;;15.96;100.00;98412.41;1591822;87;22158;-66
2022/09/15 03:10:56;;;;;;;10.13;7.90;;;;;;;15.94;100.00;98406.44;1606438;87;21006;-68
2022/09/15 03:13:24;;;;;;;10.85;8.33;;;;;;;15.92;100.00;98406.02;1590919;90;21062;-66
2022/09/15 03:15:51;;;;;;;10.70;8.85;;;;;;;15.93;100.00;98398.69;1611904;87;20985;-70
2022/09/15 03:18:18;;;;;;;11.10;8.43;;;;;;;15.92;100.00;98394.33;1594976;87;20956;-68
2022/09/15 03:20:46;;;;;;;10.40;8.70;;;;;;;15.94;100.00;98391.16;1603210;87;21411;-67
2022/09/15 03:23:14;;;;;;;12.90;8.93;;;;;;;15.93;100.00;98394.52;1616330;88;21494;-73
2022/09/15 03:25:40;;;;;;;11.88;8.80;;;;;;;15.96;100.00;98383.83;1614266;87;21695;-67
2022/09/15 03:28:07;;;;;;;14.75;9.43;;;;;;;15.90;100.00;98380.02;1603389;87;21486;-66
2022/09/15 03:30:35;;;;;;;11.25;8.38;;;;;;;15.92;100.00;98373.50;1609484;87;21024;-73
2022/09/15 03:33:02;;;;;;;9.28;7.85;;;;;;;15.94;100.00;98387.00;1615247;87;21921;-64
2022/09/15 03:35:28;;;;;;;9.78;8.68;;;;;;;15.95;100.00;98384.41;1610131;87;21073;-68
2022/09/15 03:37:57;;;;;;;9.53;8.28;;;;;;;15.97;100.00;98368.78;1591397;87;21512;-72
2022/09/15 03:40:23;;;;;;;9.80;8.43;;;;;;;15.99;100.00;98360.28;1595858;87;21104;-63
2022/09/15 03:42:52;;;;;;;17.80;10.98;;;;;;;16.00;100.00;98356.31;1611084;86;20984;-70
2022/09/15 03:45:18;;;;;;;11.97;8.73;;;;;;;16.04;100.00;98352.17;1591326;87;21178;-66
2022/09/15 03:47:46;;;;;;;12.65;10.00;;;;;;;16.02;100.00;98351.78;1598638;87;21108;-66
2022/09/15 03:50:12;;;;;;;11.12;8.73;;;;;;;16.05;100.00;98354.56;1604157;87;21001;-66
2022/09/15 03:52:39;;;;;;;11.78;8.85;;;;;;;16.08;100.00;98361.93;1617542;87;21411;-67
2022/09/15 03:55:10;;;;;;;10.68;8.95;;;;;;;16.10;100.00;98369.30;1615840;87;20965;-68
2022/09/15 03:57:39;;;;;;;11.22;9.10;;;;;;;16.02;100.00;98376.17;1598841;87;21095;-71
2022/09/15 04:00:07;;;;;;;10.93;7.83;;;;;;;15.93;100.00;98377.86;1592633;87;21008;-70
2022/09/15 04:02:37;;;;;;;9.25;7.30;;;;;;;15.87;100.00;98384.95;1612224;87;21033;-71
2022/09/15 04:05:05;;;;;;;25.92;8.80;;;;;;;15.86;100.00;98395.06;1601763;87;21048;-71
2022/09/15 04:07:33;;;;;;;11.55;7.90;;;;;;;15.89;100.00;98407.59;1616435;88;21075;-69
2022/09/15 04:10:00;;;;;;;9.63;8.40;;;;;;;15.91;100.00;98413.58;1623259;87;21264;-65
2022/09/15 04:12:28;;;;;;;9.88;7.90;;;;;;;15.94;100.00;98417.55;1615457;88;20931;-73
2022/09/15 04:14:55;;;;;;;12.18;9.05;;;;;;;15.98;100.00;98404.50;1589988;88;21025;-67
2022/09/15 04:17:23;;;;;;;12.73;8.73;;;;;;;16.01;100.00;98399.59;1615155;87;21024;-69
2022/09/15 04:19:49;;;;;;;16.85;9.63;;;;;;;16.05;100.00;98397.62;1621663;87;20981;-68
2022/09/15 04:22:18;;;;;;;12.28;9.35;;;;;;;16.08;100.00;98400.82;1626915;87;21136;-72
2022/09/15 04:24:46;;;;;;;11.05;8.83;;;;;;;16.11;100.00;98416.13;1616424;87;21009;-69
2022/09/15 04:27:15;;;;;;;15.80;8.93;;;;;;;16.13;100.00;98425.47;1620855;87;21047;-64
2022/09/15 04:29:41;;;;;;;15.05;8.85;;;;;;;16.09;100.00;98413.55;1615349;87;21492;-65
2022/09/15 04:32:08;;;;;;;11.15;9.10;;;;;;;16.07;100.00;98402.80;1607679;87;21001;-71
2022/09/15 04:34:36;;;;;;;13.93;9.18;;;;;;;16.09;100.00;98404.60;1616811;87;21312;-65
2022/09/15 04:37:04;;;;;;;12.40;8.60;;;;;;;16.14;100.00;98413.16;1598170;88;21492;-73
2022/09/15 04:39:32;;;;;;;14.47;10.68;;;;;;;16.20;100.00;98403.89;1612775;87;21639;-65
2022/09/15 04:42:03;;;;;;;14.23;9.85;;;;;;;16.25;100.00;98401.56;1592017;87;21016;-65
2022/09/15 04:44:27;;;;;;;13.28;9.73;;;;;;;16.31;100.00;98395.03;1594594;87;21044;-66
2022/09/15 04:46:54;;;;;;;10.35;9.20;;;;;;;16.35;100.00;98391.70;1612320;87;21166;-67
2022/09/15 04:49:23;;;;;;;9.75;8.63;;;;;;;16.40;100.00;98382.99;1593902;87;21028;-70
2022/09/15 04:51:54;;;;;;;12.75;8.85;;;;;;;16.45;100.00;98372.09;1621649;87;21067;-70
2022/09/15 04:54:22;;;;;;;13.98;9.00;;;;;;;16.55;100.00;98369.16;1625201;87;20985;-70
2022/09/15 04:56:49;;;;;;;11.65;8.80;;;;;;;16.58;100.00;98369.77;1616340;88;20976;-69
2022/09/15 04:59:17;;;;;;;11.45;9.10;;;;;;;16.57;100.00;98363.22;1616324;88;21164;-69
2022/09/15 05:01:45;;;;;;;11.00;9.08;;;;;;;16.58;100.00;98365.60;1616482;88;20995;-64
2022/09/15 05:04:13;;;;;;;12.37;8.58;;;;;;;16.62;100.00;98362.84;1605874;88;20952;-71
2022/09/15 05:06:41;;;;;;;9.20;7.87;;;;;;;16.65;100.00;98360.09;1591059;89;21040;-67
2022/09/15 05:09:07;;;;;;;20.40;8.50;;;;;;;16.69;100.00;98358.72;1611167;87;21075;-69
2022/09/15 05:11:35;;;;;;;13.85;8.70;;;;;;;16.73;100.00;98347.61;1616405;88;20969;-73
2022/09/15 05:14:04;;;;;;;17.10;8.98;;;;;;;16.77;100.00;98345.63;1616605;88;21020;-70
2022/09/15 05:16:32;;;;;;;17.05;7.92;;;;;;;16.81;100.00;98353.98;1634692;87;20905;-70
2022/09/15 05:19:00;;;;;;;12.20;8.60;;;;;;;16.84;100.00;98346.28;1614444;87;20940;-71
2022/09/15 05:21:26;;;;;;;12.90;8.73;;;;;;;16.89;100.00;98347.27;1590955;89;21107;-69
2022/09/15 05:23:54;;;;;;;11.03;8.33;;;;;;;16.92;100.00;98346.51;1598391;87;21275;-71
2022/09/15 05:26:24;;;;;;;18.40;9.20;;;;;;;16.96;100.00;98345.10;1616354;87;20964;-66
2022/09/15 05:28:51;;;;;;;11.30;8.08;;;;;;;17.02;100.00;98343.55;1633993;87;21445;-65
2022/09/15 05:31:21;;;;;;;10.43;8.18;;;;;;;17.06;100.00;98349.91;1627188;87;21047;-66
2022/09/15 05:33:48;;;;;;;13.03;8.23;;;;;;;17.06;100.00;98347.74;1600534;88;21044;-67
2022/09/15 05:36:16;;;;;;;10.13;8.33;;;;;;;17.12;100.00;98346.19;1622207;87;21097;-68
2022/09/15 05:38:42;;;;;;;10.08;8.05;;;;;;;17.13;100.00;98345.80;1627977;86;21086;-70
2022/09/15 05:41:15;;;;;;;13.53;8.03;;;;;;;17.13;100.00;98348.58;1660832;86;21127;-72
2022/09/15 05:43:42;;;;;;;15.28;9.30;;;;;;;17.14;100.00;98350.16;1665287;86;20925;-71
2022/09/15 05:46:11;;;;;;;11.60;7.67;;;;;;;17.16;100.00;98347.01;1666699;86;20937;-70
2022/09/15 05:48:39;;;;;;;12.70;8.18;;;;;;;17.19;100.00;98346.80;1666619;86;21212;-71
2022/09/15 05:51:05;;;;;;;9.83;7.47;;;;;;;17.21;100.00;98350.80;1663253;86;21024;-69
2022/09/15 05:53:33;;;;;;;11.83;7.65;;;;;;;17.21;100.00;98350.80;1639308;86;21445;-67
2022/09/15 05:56:04;;;;;;;11.63;7.97;;;;;;;17.23;100.00;98355.35;1645349;86;20912;-71
2022/09/15 05:58:32;;;;;;;11.95;8.80;;;;;;;17.26;100.00;98352.39;1666976;86;20964;-68
2022/09/15 06:01:12;;;;;;;12.07;8.00;;;;;;;17.30;100.00;98357.97;1638996;86;21245;-70
2022/09/15 06:03:39;;;;;;;15.65;8.33;;;;;;;17.44;100.00;98361.36;1636802;86;21130;-73
2022/09/15 06:06:08;;;;;;;11.10;8.13;;;;;;;17.59;100.00;98360.77;1617741;86;21082;-69
2022/09/15 06:08:38;;;;;;;14.33;7.87;;;;;;;17.65;100.00;98360.60;1635115;86;21087;-69
2022/09/15 06:11:11;;;;;;;11.30;9.10;;;;;;;17.51;100.00;98353.02;1638787;86;21601;-66
2022/09/15 06:13:41;;;;;;;10.88;8.30;;;;;;;17.51;100.00;98358.00;1624562;87;21821;-68
2022/09/15 06:16:18;;;;;;;11.00;7.80;;;;;;;17.54;100.00;98352.84;1614511;86;21031;-70
2022/09/15 06:18:47;;;;;;;18.20;8.75;;;;;;;17.57;100.00;98356.22;1629404;86;21537;-71
2022/09/15 06:21:23;;;;;;;17.10;9.38;;;;;;;17.64;100.00;98363.17;1649726;86;21522;-72
2022/09/15 06:23:56;;;;;;;13.98;8.85;;;;;;;17.69;100.00;98371.13;1636197;86;21158;-74
2022/09/15 06:26:23;;;;;;;13.28;9.30;;;;;;;17.72;100.00;98375.94;1638103;86;21840;-71
2022/09/15 06:28:52;;;;;;;16.80;10.38;;;;;;;17.75;100.00;98377.92;1638724;86;22229;-68
2022/09/15 06:31:20;;;;;;;16.75;9.30;;;;;;;17.78;100.00;98372.14;1637229;86;21028;-66
2022/09/15 06:33:51;;;;;;;11.70;9.10;;;;;;;17.79;100.00;98365.39;1638967;86;21421;-67
2022/09/15 06:36:21;;;;;;;14.47;9.58;;;;;;;17.82;100.00;98370.75;1643058;86;21149;-69
2022/09/15 06:38:48;;;;;;;13.68;10.20;;;;;;;17.85;100.00;98370.76;1617023;87;21163;-67
2022/09/15 06:41:14;;;;;;;12.50;8.65;;;;;;;17.91;100.00;98359.22;1622460;87;20992;-67
2022/09/15 06:43:43;;;;;;;12.05;8.60;;;;;;;17.93;100.00;98345.69;1638151;87;21025;-66
2022/09/15 06:46:14;;;;;;;16.12;8.60;;;;;;;17.93;100.00;98358.23;1629191;86;21475;-70
2022/09/15 06:48:41;;;;;;;17.77;9.85;;;;;;;17.94;100.00;98357.02;1615803;88;21048;-73
2022/09/15 06:51:09;;;;;;;13.20;8.28;;;;;;;17.95;100.00;98349.66;1616413;88;21165;-71
2022/09/15 06:53:37;;;;;;;16.20;8.75;;;;;;;17.95;100.00;98350.24;1616266;88;21028;-66
2022/09/15 06:56:13;;;;;;;17.42;8.50;;;;;;;17.96;100.00;98354.64;1616356;88;21582;-68
2022/09/15 06:58:40;;;;;;;16.85;8.73;;;;;;;17.97;100.00;98351.45;1605385;88;21465;-74
2022/09/15 07:01:10;;;;;;;13.30;8.63;;;;;;;17.98;100.00;98354.42;1589464;89;21088;-66
2022/09/15 07:03:39;;;;;;;14.10;8.90;;;;;;;18.01;100.00;98355.02;1572097;90;21223;-67
2022/09/15 07:06:07;;;;;;;18.42;9.58;;;;;;;18.00;100.00;98352.04;1572325;90;21081;-71
2022/09/15 07:08:33;;;;;;;14.00;9.18;;;;;;;17.99;100.00;98355.23;1589672;90;21579;-74
2022/09/15 07:18:34;;;;;;;15.30;9.08;;;;;;;18.10;100.00;98351.83;1622403;87;21815;-76
2022/09/15 07:21:09;;;;;;;15.83;9.38;;;;;;;18.19;100.00;98345.88;1642910;87;20951;-79
2022/09/15 07:27:03;;;;;;;15.10;8.38;;;;;;;18.34;100.00;98348.63;1574609;89;21068;-73
2022/09/15 07:29:30;;;;;;;16.85;9.88;;;;;;;18.40;100.00;98349.83;1584665;89;21501;-72
2022/09/15 07:31:56;;;;;;;11.12;8.98;;;;;;;18.47;100.00;98336.46;1595457;90;21790;-69
2022/09/15 07:34:22;;;;;;;13.35;9.30;;;;;;;18.52;100.00;98339.43;1556655;89;21087;-71
2022/09/15 07:36:52;;;;;;;15.72;9.38;;;;;;;18.58;100.00;98344.78;1581260;88;21152;-75
2022/09/15 07:39:19;;;;;;;13.05;9.90;;;;;;;18.63;100.00;98342.20;1561436;90;20985;-74
2022/09/15 07:41:45;;;;;;;12.70;9.55;;;;;;;18.68;100.00;98340.38;1544969;90;21113;-74
2022/09/15 07:44:12;;;;;;;15.50;9.70;;;;;;;18.71;100.00;98335.39;1558980;90;21606;-73
2022/09/15 07:46:42;;;;;;;16.70;9.65;;;;;;;18.73;100.00;98332.99;1541361;92;21030;-72
2022/09/15 07:49:09;;;;;;;17.55;9.30;;;;;;;18.78;100.00;98327.59;1538827;90;21054;-68
2022/09/15 07:51:36;;;;;;;15.32;9.63;;;;;;;18.82;100.00;98322.77;1609400;87;21028;-71
2022/09/15 07:54:03;;;;;;;11.88;9.20;;;;;;;18.86;100.00;98326.35;1605364;87;21013;-72
2022/09/15 07:56:31;;;;;;;13.85;9.43;;;;;;;18.90;100.00;98322.92;1604957;89;21136;-74
2022/09/15 07:58:57;;;;;;;14.20;9.95;;;;;;;18.92;100.00;98321.92;1604641;88;21558;-68
2022/09/15 08:01:26;;;;;;;15.98;10.23;;;;;;;18.95;100.00;98327.31;1589974;88;21080;-71
2022/09/15 08:03:53;;;;;;;14.90;9.83;;;;;;;18.96;100.00;98319.13;1579556;90;21008;-69
2022/09/15 08:06:22;;;;;;;15.18;9.35;;;;;;;18.97;100.00;98321.50;1579928;90;21442;-75
2022/09/15 08:08:50;;;;;;;15.15;8.90;;;;;;;18.98;100.00;98322.31;1594225;88;21715;-70
2022/09/15 08:11:18;;;;;;;11.53;9.58;;;;;;;19.01;100.00;98315.91;1604570;89;21037;-65
2022/09/15 08:13:47;;;;;;;17.17;9.45;;;;;;;19.04;100.00;98317.88;1604557;89;20921;-71
2022/09/15 08:16:18;;;;;;;12.75;9.30;;;;;;;19.05;100.00;98316.70;1604648;89;21009;-72
2022/09/15 08:18:45;;;;;;;15.70;9.48;;;;;;;19.06;100.00;98315.48;1611186;87;21073;-74
2022/09/15 08:21:18;;;;;;;15.03;9.55;;;;;;;19.04;100.00;98310.13;1596431;88;21172;-73
2022/09/15 08:23:52;;;;;;;11.25;8.28;;;;;;;19.05;100.00;98310.31;1579297;90;21584;-74
2022/09/15 08:26:19;;;;;;;17.35;10.43;;;;;;;19.07;100.00;98314.27;1579793;90;21026;-71
2022/09/15 08:28:47;;;;;;;12.78;9.03;;;;;;;19.11;100.00;98313.51;1579683;90;21046;-70
2022/09/15 08:31:14;;;;;;;14.00;9.63;;;;;;;19.12;100.00;98310.90;1597484;87;21037;-68
2022/09/15 08:33:40;;;;;;;16.07;9.25;;;;;;;19.16;100.00;98311.06;1630450;88;21426;-68
2022/09/15 08:36:13;;;;;;;17.67;10.13;;;;;;;19.21;100.00;98309.83;1630733;87;21509;-74
2022/09/15 08:38:39;;;;;;;22.13;9.88;;;;;;;19.23;100.00;98306.03;1622942;87;21120;-65
2022/09/15 08:41:19;;;;;;;15.13;9.50;;;;;;;19.26;100.00;98305.83;1621661;88;20962;-72
2022/09/15 08:43:53;;;;;;;13.80;9.55;;;;;;;19.29;100.00;98299.42;1621624;87;21021;-72
2022/09/15 08:46:25;;;;;;;19.10;9.35;;;;;;;19.29;100.00;98298.83;1621769;88;21199;-72
2022/09/15 08:49:17;;;;;;;16.77;9.28;;;;;;;19.31;100.00;98298.42;1621951;88;21537;-72
2022/09/15 08:51:46;;;;;;;18.40;10.28;;;;;;;19.34;100.00;98296.20;1621670;88;21041;-66
2022/09/15 08:54:19;;;;;;;12.55;8.30;;;;;;;19.37;100.00;98286.20;1621619;87;21037;-68
2022/09/15 08:56:45;;;;;;;11.43;8.90;;;;;;;19.40;100.00;98285.37;1611153;88;21554;-68
2022/09/15 08:59:15;;;;;;;16.65;9.13;;;;;;;19.42;100.00;98289.36;1621494;87;21015;-73
2022/09/15 09:02:08;;;;;;;12.05;8.23;;;;;;;19.46;100.00;98291.50;1621548;88;21477;-72
2022/09/15 09:04:51;;;;;;;11.45;7.00;;;;;;;19.48;100.00;98295.91;1622077;88;21558;-74
2022/09/15 09:07:43;;;;;;;11.65;7.50;;;;;;;19.50;100.00;98294.89;1621770;88;21038;-68
2022/09/15 09:10:26;;;;;;;12.60;7.62;;;;;;;19.52;100.00;98286.87;1621612;88;20979;-74
2022/09/15 09:13:07;;;;;;;9.15;8.10;;;;;;;19.53;100.00;98278.70;1610163;87;21534;-68
2022/09/15 09:15:54;;;;;;;10.10;7.40;;;;;;;19.57;100.00;98280.26;1621215;87;20978;-64
2022/09/15 09:19:06;;;;;;;13.62;7.85;;;;;;;19.57;100.00;98277.47;1621610;87;20874;-74
2022/09/15 09:21:56;;;;;;;11.55;6.90;;;;;;;19.57;100.00;98280.26;1621502;88;21855;-73
2022/09/15 09:24:43;;;;;;;8.88;6.80;;;;;;;19.61;100.00;98289.20;1621740;88;20942;-74
2022/09/15 09:27:18;;;;;;;13.43;7.12;;;;;;;19.63;100.00;98286.80;1621719;88;21228;-70
2022/09/15 09:30:13;;;;;;;12.65;6.90;;;;;;;19.64;100.00;98281.39;1621509;87;21017;-71
2022/09/15 09:33:18;;;;;;;11.43;8.03;;;;;;;19.68;100.00;98277.39;1621605;88;20942;-71
2022/09/15 09:35:48;;;;;;;9.78;7.15;;;;;;;19.75;100.00;98274.33;1621967;87;20914;-68
2022/09/15 09:38:33;;;;;;;9.48;6.62;;;;;;;19.80;100.00;98276.08;1621547;88;21048;-67
2022/09/15 09:40:59;;;;;;;8.43;6.50;;;;;;;19.83;100.00;98271.66;1621478;88;21064;-75
2022/09/15 09:43:27;;;;;;;12.50;7.83;;;;;;;19.87;100.00;98266.84;1621604;88;20942;-73
2022/09/15 09:45:54;;;;;;;8.08;6.10;;;;;;;19.90;100.00;98270.19;1621815;87;21076;-70
2022/09/15 09:48:23;;;;;;;13.78;6.50;;;;;;;19.97;100.00;98274.12;1621666;88;21030;-76
2022/09/15 09:50:50;;;;;;;9.40;6.50;;;;;;;20.02;100.00;98273.66;1621531;87;21446;-71
2022/09/15 09:53:31;;;;;;;11.48;6.47;;;;;;;20.08;100.00;98269.86;1621631;88;20954;-74
2022/09/15 09:56:24;;;;;;;9.03;6.10;;;;;;;20.09;100.00;98272.23;1621597;87;20934;-67
2022/09/15 09:58:51;;;;;;;10.95;6.55;;;;;;;20.17;100.00;98272.34;1621796;88;20977;-71
2022/09/15 10:01:20;;;;;;;8.70;6.50;;;;;;;20.23;100.00;98278.87;1610563;88;21010;-74
2022/09/15 10:03:47;;;;;;;8.83;5.60;;;;;;;20.26;100.00;98282.23;1621792;88;21590;-74
2022/09/15 10:06:21;;;;;;;14.35;6.22;;;;;;;20.29;100.00;98281.39;1621603;88;21745;-74
2022/09/15 10:09:04;;;;;;;7.25;5.30;;;;;;;20.30;100.00;98278.80;1621557;88;20918;-74
2022/09/15 10:11:48;;;;;;;9.58;5.45;;;;;;;20.34;100.00;98281.53;1621756;88;20933;-65
2022/09/15 10:14:27;;;;;;;8.13;5.85;;;;;;;20.38;100.00;98283.10;1621536;87;21494;-70
2022/09/15 10:17:14;;;;;;;11.33;5.65;;;;;;;20.41;100.00;98285.66;1621829;87;21018;-74
2022/09/15 10:19:54;;;;;;;8.90;5.22;;;;;;;20.45;100.00;98284.22;1621595;87;21156;-74
2022/09/15 10:22:34;;;;;;;7.35;4.92;;;;;;;20.49;100.00;98280.78;1621493;88;20978;-73
2022/09/15 10:25:04;;;;;;;9.28;5.10;;;;;;;20.52;100.00;98284.14;1621568;87;21049;-71
2022/09/15 10:27:34;;;;;;;8.33;4.75;;;;;;;20.57;100.00;98286.48;1622804;87;37742;-68
2022/09/15 10:30:16;;;;;;;6.53;4.40;;;;;;;20.63;100.00;98281.99;1621627;88;21014;-71
2022/09/15 10:32:47;;;;;;;7.08;4.17;;;;;;;20.62;100.00;98285.21;1621378;87;21916;-73
2022/09/15 10:35:20;;;;;;;5.65;4.55;;;;;;;20.61;100.00;98280.22;1621484;88;20871;-73
2022/09/15 10:38:10;;;;;;;6.58;4.97;;;;;;;20.61;100.00;98270.42;1622000;87;21025;-66
2022/09/15 10:40:48;;;;;;;6.97;5.20;;;;;;;20.60;100.00;98270.84;1621578;88;21590;-70
2022/09/15 10:44:00;;;;;;;11.90;5.25;;;;;;;20.61;100.00;98259.23;1621530;88;20966;-71
2022/09/15 10:46:34;;;;;;;9.08;5.45;;;;;;;20.62;100.00;98258.63;1621578;88;21798;-64
2022/09/15 10:49:28;;;;;;;7.22;4.92;;;;;;;20.62;100.00;98246.84;1621708;87;20907;-69
2022/09/15 10:52:12;;;;;;;7.08;5.20;;;;;;;20.63;100.00;98246.22;1622065;88;21533;-73
2022/09/15 10:55:14;;;;;;;10.53;5.00;;;;;;;20.64;100.00;98243.62;1622063;88;20942;-71
2022/09/15 10:58:14;;;;;;;12.60;5.70;;;;;;;20.61;100.00;98237.48;1608212;88;20986;-71
2022/09/15 11:00:52;;;;;;;6.58;4.60;;;;;;;20.60;100.00;98244.27;1644896;86;21089;-73
2022/09/15 11:03:35;;;;;;;5.90;4.53;;;;;;;20.62;100.00;98244.64;1621547;87;21006;-72
2022/09/15 11:06:13;;;;;;;8.45;4.87;;;;;;;20.61;100.00;98238.25;1678422;85;20901;-71
2022/09/15 11:09:15;;;;;;;11.28;5.08;;;;;;;20.62;100.00;98241.25;1678146;85;20971;-68
2022/09/15 11:12:10;;;;;;;8.40;6.03;;;;;;;20.65;100.00;98236.21;1678267;85;20973;-73
2022/09/15 11:14:59;;;;;;;11.38;4.50;;;;;;;20.64;100.00;98230.41;1658881;85;21152;-71
2022/09/15 11:17:40;;;;;;;6.75;4.75;;;;;;;20.68;100.00;98228.97;1678447;85;20979;-71
2022/09/15 11:20:46;;;;;;;7.75;5.15;;;;;;;20.70;100.00;98231.34;1679776;83;20917;-65
2022/09/15 11:23:24;;;;;;;7.75;4.80;;;;;;;20.68;100.00;98230.36;1678118;85;20973;-74
2022/09/15 11:25:57;;;;;;;8.33;5.22;;;;;;;20.69;100.00;98227.77;1678351;85;21013;-73
2022/09/15 11:28:42;;;;;;;10.28;5.00;;;;;;;20.67;100.00;98218.41;1678352;85;21767;-72
2022/09/15 11:31:16;;;;;;;7.45;4.62;;;;;;;20.66;100.00;98215.40;1678098;85;21028;-69
2022/09/15 11:33:51;;;;;;;7.78;5.00;;;;;;;20.66;100.00;98209.80;1678455;85;20928;-70
2022/09/15 11:36:39;;;;;;;5.80;4.00;;;;;;;20.70;100.00;98211.75;1678266;85;20997;-71
2022/09/15 11:39:21;;;;;;;7.55;3.83;;;;;;;20.68;100.00;98208.78;1678268;84;20932;-71
2022/09/15 11:41:55;;;;;;;5.28;3.42;;;;;;;20.66;100.00;98205.61;1678295;85;21153;-71
2022/09/15 11:44:33;;;;;;;5.70;4.45;;;;;;;20.68;100.00;98206.58;1677832;85;20842;-71
2022/09/15 11:47:29;;;;;;;4.42;3.70;;;;;;;20.68;100.00;98212.18;1678157;85;20932;-74
2022/09/15 11:50:12;;;;;;;4.08;3.55;;;;;;;20.70;100.00;98211.75;1678413;85;21530;-73
2022/09/15 11:53:04;;;;;;;5.53;4.80;;;;;;;20.65;100.00;98202.64;1672006;85;21489;-72
2022/09/15 11:55:51;;;;;;;5.92;4.42;;;;;;;20.66;100.00;98201.41;1678668;85;21374;-73
2022/09/15 11:58:35;;;;;;;7.42;4.25;;;;;;;20.67;100.00;98197.42;1678148;85;20972;-73